Glenwood, Washington
Current Conditions -  °F | °C
As of 3:59 AM on Friday 24 Oct 2014 (Local Time) from K4S2 Reporting Station
Broken Clouds Broken Clouds  
Wind Chill: 46°   Ceiling: 6500
Heat Index: 46°   Visibility: 10mi
Dew Point: 45°   Wind: 0mph
Humidity: 93%   Direction: NA
Pressure: 30.05"   Gusts: NA
Location:  46.02°N, 121.29°W
Report Text: K4S2 241059Z AUTO 00000KT 10SM BKN065 08/07 A3005 RMK AO2 SLP189 T00800070
Loading
Personal Weather Stations






























Interactive Weather Map
Tropical Storm Tracking
New forecast layout! Learn more

10-Day Weather Forecast

Advertisements
Track Severe Weather on mobile